Alamo, Nevada Weather observations

Data are for observation ending at time listed.
 Day   Time    Ave.   Ave.  Ave.  Vector   Max.   Stn.    Total    Solar   Ave.  
  of    of     Air    Rel.  Wind   Wind    Wind   Baro.  Precip.   Rad.    Soil  
Year   Day     Temp.  Hum.  Speed  Dir.    Gust   Pres.                    Temp. 
2014   (PST)    F      %     mph   deg.    mph     mb.     in.     W/m2     F   
------------------------------------------------------------------------------
 259   11:50   92.8    21    2.8   185      7.0   896.2    0.00     913    76.2
 259   12:00   93.0    21    2.1   184      6.1   896.2    0.00     915    77.0
 259   12:10   94.0    20    2.3   184      7.3   895.9    0.00     911    78.2
 259   12:20   94.0    20    1.9   181      6.7   895.8    0.00     908    79.3
 259   12:30   94.3    21    2.7   189      6.7   896.0    0.00     899    80.4
 259   12:40   94.5    19    1.7   178      7.2   895.9    0.00     894    81.5
 259   12:50   95.1    18    1.5   171      5.8   896.1    0.00     886    82.6
 259   13:00   94.8    20    3.0   189      8.6   895.7    0.00     874    83.5
 259   13:10   94.9    19    2.2   184      6.1   895.2    0.00     858    84.3
 259   13:20   95.4    20    2.3   182      6.8   895.0    0.00     842    85.0
 259   13:30   95.2    20    3.3   185      7.5   895.0    0.00     827    85.7
 259   13:40   95.4    19    1.6   185      6.4   896.1    0.00     809    86.4
 259   13:50   95.8    18    1.3   167      5.0   895.8    0.00     791    87.0
 259   14:00   96.1    18    2.1   179      5.8   895.6    0.00     768    87.5
 259   14:10   95.9    18    1.4   171      5.6   895.4    0.00     743    88.0
 259   14:20   95.9    18    1.5   176      6.6   895.1    0.00     718    88.4
 259   14:30   96.3    17    1.8   186      6.6   895.0    0.00     691    88.8
 259   14:40   94.8    18    3.5   188      8.3   894.8    0.00     661    89.2
 259   14:50   95.0    18    1.8   184      6.6   894.6    0.00     632    89.4
 259   15:00   94.6    18    2.9   182      8.6   894.5    0.00     600    89.7
 259   15:10   94.5    18    2.8   178      7.5   894.4    0.00     569    89.9
 259   15:20   95.5    17    1.3   165      6.1   894.3    0.00     538    90.0
 259   15:30   94.8    18    2.7   187      7.9   894.2    0.00     503    89.9
 259   15:40   94.5    18    2.0   183      6.4   894.2    0.00     469    89.6
 259   15:50   93.8    20    2.6   185      6.2   894.0    0.00     430    89.2
 259   16:00   93.3    20    2.0   183      5.3   893.9    0.00     393    88.7
 259   16:10   93.6    19    1.8   185      5.3   893.9    0.00     358    88.2
 259   16:20   93.1    19    2.6   183      6.0   894.0    0.00     321    87.7
 259   16:30   91.4    20    3.4   187      6.9   894.1    0.00     285    87.3
 259   16:40   90.1    21    2.6   190      5.0   894.1    0.00     250    86.7
 259   16:50   89.3    21    2.7   188      5.2   894.1    0.00     211    86.2
 259   17:00   88.7    22    1.8   187      5.0   894.2    0.00     159    85.7
 259   17:10   88.0    22    1.8   186      3.7   894.3    0.00      50    85.3
 259   17:20   87.1    23    1.6   183      4.6   894.3    0.00      44    84.8
 259   17:30   86.6    23    1.1   187      2.9   894.2    0.00      17    84.4
 259   17:40   85.4    24    0.5   183      1.8   894.3    0.00      11    83.9
 259   17:50   84.4    24    0.5   195      2.0   894.4    0.00       5    83.5
 259   18:00   83.6    25    0.2   200      1.2   894.5    0.00       0    83.1
 259   18:10   82.2    27    0.2   219      0.8   894.6    0.00       0    82.8
 259   18:20   81.1    28    0.0   205      0.2   894.7    0.00       0    82.4
 259   18:30   80.2    30    0.3   281      1.3   894.9    0.00       0    82.1
 259   18:40   79.6    31    0.5   257      1.7   895.0    0.00       0    81.8
 259   18:50   79.3    31    0.1   264      0.8   895.1    0.00       0    81.4
 259   19:00   78.4    33    0.0     0      0.0   895.2    0.00       0    81.1
 259   19:10   77.6    34    0.0     0      0.0   895.3    0.00       0    80.8
 259   19:20   76.9    36    0.0     0      0.0   895.3    0.00       0    80.5
 259   19:30   76.2    37    0.0    11      0.5   895.3    0.00       0    80.2
 259   19:40   75.8    38    0.0     0      0.0   895.1    0.00       0    80.0
 259   19:50   75.5    38    0.0     0      0.0   895.0    0.00       0    79.7
 259   20:00   74.9    39    0.0     0      0.0   895.2    0.00       0    79.4
 259   20:10   74.3    40    0.0     0      0.0   895.4    0.00       0    79.2
 259   20:20   73.5    43    0.0     0      0.0   895.0    0.00       0    78.9
 259   20:30   72.6    45    0.0     0      0.0   895.0    0.00       0    78.7
 259   20:40   72.1    46    0.6    43      2.2   894.5    0.00       0    78.5
 259   20:50   71.3    47    1.4    53      2.7   894.5    0.00       0    78.3
 259   21:00   70.8    48    0.6    16      1.3   894.7    0.00       0    78.0
 259   21:10   71.1    48    0.2   235      1.4   894.8    0.00       0    77.8
 259   21:20   73.5    46    1.5   183      5.8   894.6    0.00       0    77.6
 259   21:30   78.6    44    2.8   193      6.8   894.6    0.00       0    77.4
 259   21:40   79.5    46    2.9   184      7.7   894.6    0.00       0    77.3
 259   21:50   79.4    46    2.5   173      8.7   894.8    0.00       0    77.3
 259   22:00   79.1    47    2.1   160     11.2   894.9    0.00       0    77.2
 259   22:10   78.5    49    2.5   173     11.1   895.0    0.00       0    77.2
 259   22:20   77.5    50    2.3   180      9.1   895.1    0.00       0    77.1
 259   22:30   77.3    50    2.1   174      7.5   895.2    0.00       0    77.1
 259   22:40   77.3    49    1.7   178      7.5   895.2    0.00       0    77.0
 259   22:50   77.1    49    1.5   188      4.5   895.3    0.00       0    76.9
 259   23:00   76.9    49    1.8   197      6.6   895.3    0.00       0    76.8
 259   23:10   75.7    52    1.3   208      3.4   895.3    0.00       0    76.7
 259   23:20   74.5    54    1.1   212      3.8   895.3    0.00       0    76.6
 259   23:30   74.1    54    1.0   191      4.1   895.3    0.00       0    76.5
 259   23:40   74.9    50    1.5   174      4.2   895.2    0.00       0    76.4
 259   23:50   75.2    49    0.7   159      4.0   895.2    0.00       0    76.2
 260    0:00   75.4    48    1.0   157      4.5   895.2    0.00       0    76.1
 260    0:10   74.8    50    1.6   201      4.5   895.2    0.00       0    76.0
 260    0:20   73.3    53    1.2   208      3.1   895.3    0.00       0    75.9
 260    0:30   72.2    55    0.7   197      2.3   895.4    0.00       0    75.8
 260    0:40   72.2    54    0.3   182      1.6   895.4    0.00       0    75.7
 260    0:50   72.6    52    0.3    85      1.8   895.3    0.00       0    75.6
 260    1:00   72.5    52    0.7    78      2.6   895.3    0.00       0    75.4
 260    1:10   72.2    52    0.5    89      2.4   895.2    0.00       0    75.3
 260    1:20   72.0    51    0.6   208      2.6   895.1    0.00       0    75.2
 260    1:30   72.7    50    1.2   218      3.0   895.1    0.00       0    75.1
 260    1:40   71.7    54    1.0   204      1.9   895.0    0.00       0    75.0
 260    1:50   70.7    55    0.8   194      1.7   894.8    0.00       0    74.9
 260    2:00   70.3    56    0.8   232      1.3   894.8    0.00       0    74.8
 260    2:10   70.2    56    0.4   227      1.5   894.7    0.00       0    74.6
 260    2:20   69.2    59    0.0     0      0.0   894.7    0.00       0    74.5
 260    2:30   68.1    62    0.6    19      1.5   895.0    0.00       0    74.4
 260    2:40   67.7    62    0.7    19      1.6   894.8    0.00       0    74.3
 260    2:50   67.2    63    0.7    12      1.6   895.1    0.00       0    74.1
 260    3:00   66.8    63    0.5   326      1.4   895.1    0.00       0    74.0
 260    3:10   66.5    64    0.4    18      1.5   895.0    0.00       0    73.9
 260    3:20   66.2    64    0.9    42      1.5   895.0    0.00       0    73.8
 260    3:30   65.7    66    0.8     2      1.7   894.9    0.00       0    73.7
 260    3:40   65.8    65    1.4    21      2.4   894.7    0.00       0    73.6
 260    3:50   65.8    65    1.0     9      2.5   894.9    0.00       0    73.4
 260    4:00   65.9    65    1.7   358      3.1   895.2    0.00       0    73.3
 260    4:10   65.9    66    1.8   346      3.5   895.1    0.00       0    73.2
 260    4:20   65.6    67    0.9   296      2.3   895.2    0.00       0    73.1
 260    4:30   65.1    68    0.6    35      1.9   895.3    0.00       0    73.0
 260    4:40   64.4    70    1.0    27      1.8   895.4    0.00       0    72.9
 260    4:50   64.0    71    0.3    61      1.1   895.7    0.00       0    72.8
 260    5:00   63.5    72    0.8   295      1.5   895.6    0.00       0    72.7
 260    5:10   63.1    73    0.6   286      1.8   896.1    0.00       0    72.6
 260    5:20   62.8    74    0.9   268      1.5   895.8    0.00       0    72.5
 260    5:30   63.1    72    0.1   340      1.2   895.6    0.00       0    72.4
 260    5:40   62.5    74    0.0     0      0.0   895.6    0.00       4    72.3
 260    5:50   62.3    75    0.2    17      1.1   895.7    0.00      12    72.2
 260    6:00   62.5    74    1.5    50      2.9   895.8    0.00      13    72.1
 260    6:10   63.3    73    0.9    55      1.9   896.0    0.00      26    72.0
 260    6:20   65.4    69    0.6   315      1.6   896.1    0.00      29    71.9
 260    6:30   66.5    66    0.7   316      2.2   896.2    0.00      28    71.8
 260    6:40   67.4    65    0.2    62      1.1   896.3    0.00      32    71.7
 260    6:50   67.9    64    0.4    51      1.0   896.4    0.00      29    71.8
 260    7:00   70.1    59    0.5   322      2.3   896.3    0.00      51    71.8
 260    7:10   71.1    57    1.3   305      2.7   896.3    0.00      37    71.8
 260    7:20   71.7    56    0.6   251      1.8   896.2    0.00      40    71.9
 260    7:30   72.6    55    0.6   358      2.0   896.2    0.00      79    71.9
 260    7:40   73.3    55    0.5   223      1.2   896.2    0.00      35    72.1
 260    7:50   74.1    52    0.8   306      2.7   896.3    0.00      36    72.1
 260    8:00   75.0    52    0.6    82      2.0   896.3    0.00      51    72.2
 260    8:10   75.7    51    0.8   202      2.3   896.2    0.00      78    72.2
 260    8:20   76.2    49    1.2   200      2.4   896.2    0.00      60    72.3
 260    8:30   76.8    48    1.4   199      3.5   896.1    0.00      44    72.4
 260    8:40   77.6    45    2.0   193      6.2   896.1    0.00      40    72.4
 260    8:50   78.4    44    2.4   200      6.7   896.0    0.00      45    72.5
 260    9:00   79.1    41    3.0   191      6.1   895.9    0.00      71    72.5
 260    9:10   79.7    41    3.3   186      7.2   895.8    0.00      44    72.6
 260    9:20   80.0    40    3.6   188      7.7   895.8    0.00      47    72.7
 260    9:30   80.9    40    2.5   189      9.2   895.8    0.00      40    72.8
 260    9:40   81.7    39    2.2   177      6.1   895.8    0.00      40    73.0
 260    9:50   82.3    37    3.2   186      8.1   895.7    0.00      41    73.1
 260   10:00   82.5    38    3.6   191      8.4   895.6    0.00      75    73.2
 260   10:10   83.2    37    3.6   193      7.9   895.6    0.00      60    73.3
 260   10:20   83.9    36    3.0   187      7.5   895.4    0.00      46    73.5
 260   10:30   84.3    36    3.2   186      7.0   895.4    0.00      64    73.7
 260   10:40   85.3    34    2.0   188      6.0   895.2    0.00      65    74.2
 260   10:50   85.6    33    2.2   186      6.8   895.1    0.00      51    74.8
 260   11:00   86.5    32    1.7   188      6.6   895.0    0.00      86    75.5
 260   11:10   87.0    32    1.6   189      5.3   894.9    0.00      68    76.2
 260   11:20   87.1    32    2.9   185      6.7   894.7    0.00     237    76.9
 260   11:30   87.7    32    2.5   183      7.2   894.6    0.00     328    77.3
 260   11:40   88.0    30    2.5   174      8.7   894.5    0.00     865    77.7

Return to Alamo, Nevada graphs page.


Western Regional Climate Center,wrcc@dri.edu